Aérodrome :
LOGIN :

S'inscrire | Disclaimer

   EN    FR    IT 

 










Légende :    VFR   VFR Marginal   IFR   IFR Intensif   IFR Très Intensif
Visi : 
Plafond : 
>= 8 km
>= 3000ft
5 à 8 km
1000 à 3000 ft
1500m à 5 km
500 à 1000 ft
800 à 1500m
200 à 500 ft
< 800m
< 200 ft
Symboles :   Orages  Brouillard  Fortes neiges  Fortes précipitations  Vent > 20 kt
SIGMETs :   Divers  Orages  Givrage  Turbulence  Onde Orograph.  Cendres Volcan.






- Altitude de l'aérodrome : 404 ft
- Code IATA : ECN


LCEN - Ercan International

DERNIER METAR :
  • 191520Z 00000KT 9999 SCT025 SCT100 10/07 Q1016 NOSIG RMK RWY11 00000KT

METARs EXPIRÉS :
  • 191450Z 09004KT 9999 SCT025 SCT100 11/06 Q1016 NOSIG RMK RWY11 21004KT
  • 191420Z 07004KT 9999 SCT025 SCT100 12/06 Q1016 NOSIG RMK RWY11 23005KT
  • 191350Z 06006KT 9999 FEW020 FEW025TCU SCT100 13/06 Q1016 NOSIG
  • 191320Z 06004KT 9999 FEW020 FEW025TCU SCT100 12/06 Q1015 NOSIG RMK RWY11 21005KT
  • 191250Z 04005KT 9999 FEW020 SCT025 12/06 Q1015 NOSIG RMK RWY11 33005KT

TAF TAF LCEN
Valide du 19 à 12h jusqu'au 20 à 12h UTC


191040Z 1912/2012 08012KT 9999 SCT020 BKN100
PROB30
TEMPO 1912/1916 -RA BKN020 BKN080



MET'MAP, la Météo Aéronautique d'un coup d'oeil ! - Copyright ORBIFLY Décembre 2007 - Disclaimer

ORBIFLY MET'MAP TEAM :

Programmation & Développement : Alexandra Zaïnal
Sur une idée originale de : Baudouin d'Aumeries
Assistance à la programmation : Marc-Olivier Méhu
Soutien technique & logistique : Manuel Goepfert

Contact : metmap@orbifly.com




SOURCES & CREDITS :

   NOAA